sensor_id;sensor_type;location;lat;lon;timestamp;P1;durP1;ratioP1;P2;durP2;ratioP2
23228;SDS011;11783;50.350;6.576;2023-10-08T00:02:03;8.07;;;3.20;;
23228;SDS011;11783;50.350;6.576;2023-10-08T00:04:31;7.97;;;2.80;;
23228;SDS011;11783;50.350;6.576;2023-10-08T00:07:02;9.00;;;3.03;;
23228;SDS011;11783;50.350;6.576;2023-10-08T00:09:34;7.07;;;3.15;;
23228;SDS011;11783;50.350;6.576;2023-10-08T00:12:03;7.10;;;2.65;;
23228;SDS011;11783;50.350;6.576;2023-10-08T00:14:29;8.50;;;3.17;;
23228;SDS011;11783;50.350;6.576;2023-10-08T00:16:55;9.40;;;3.00;;
23228;SDS011;11783;50.350;6.576;2023-10-08T00:19:20;7.68;;;2.95;;
23228;SDS011;11783;50.350;6.576;2023-10-08T00:21:46;7.47;;;2.70;;
23228;SDS011;11783;50.350;6.576;2023-10-08T00:24:13;9.15;;;3.05;;
23228;SDS011;11783;50.350;6.576;2023-10-08T00:26:40;6.45;;;2.63;;
23228;SDS011;11783;50.350;6.576;2023-10-08T00:29:06;8.25;;;2.97;;
23228;SDS011;11783;50.350;6.576;2023-10-08T00:31:41;7.28;;;2.80;;
23228;SDS011;11783;50.350;6.576;2023-10-08T00:34:09;5.75;;;2.45;;
23228;SDS011;11783;50.350;6.576;2023-10-08T00:36:43;8.38;;;2.90;;
23228;SDS011;11783;50.350;6.576;2023-10-08T00:39:10;7.07;;;3.25;;
23228;SDS011;11783;50.350;6.576;2023-10-08T00:41:45;8.02;;;2.90;;
23228;SDS011;11783;50.350;6.576;2023-10-08T00:44:11;9.38;;;2.60;;
23228;SDS011;11783;50.350;6.576;2023-10-08T00:46:41;9.82;;;3.15;;
23228;SDS011;11783;50.350;6.576;2023-10-08T00:49:13;9.18;;;2.97;;
23228;SDS011;11783;50.350;6.576;2023-10-08T00:51:58;7.68;;;2.97;;
23228;SDS011;11783;50.350;6.576;2023-10-08T00:54:28;9.23;;;3.13;;
23228;SDS011;11783;50.350;6.576;2023-10-08T00:56:58;6.40;;;3.08;;
23228;SDS011;11783;50.350;6.576;2023-10-08T00:59:28;6.28;;;2.65;;
23228;SDS011;11783;50.350;6.576;2023-10-08T01:01:58;7.97;;;3.08;;
23228;SDS011;11783;50.350;6.576;2023-10-08T01:04:30;8.05;;;3.10;;
23228;SDS011;11783;50.350;6.576;2023-10-08T01:06:59;6.75;;;2.63;;
23228;SDS011;11783;50.350;6.576;2023-10-08T01:09:37;12.70;;;2.75;;
23228;SDS011;11783;50.350;6.576;2023-10-08T01:12:15;7.28;;;3.30;;
23228;SDS011;11783;50.350;6.576;2023-10-08T01:14:41;8.07;;;2.67;;
23228;SDS011;11783;50.350;6.576;2023-10-08T01:17:10;8.02;;;3.78;;
23228;SDS011;11783;50.350;6.576;2023-10-08T01:19:39;9.82;;;2.97;;
23228;SDS011;11783;50.350;6.576;2023-10-08T01:22:07;8.50;;;2.88;;
23228;SDS011;11783;50.350;6.576;2023-10-08T01:24:35;7.20;;;2.97;;
23228;SDS011;11783;50.350;6.576;2023-10-08T01:27:00;6.05;;;2.75;;
23228;SDS011;11783;50.350;6.576;2023-10-08T01:29:30;6.75;;;2.83;;
23228;SDS011;11783;50.350;6.576;2023-10-08T01:31:57;7.82;;;2.78;;
23228;SDS011;11783;50.350;6.576;2023-10-08T01:34:22;6.43;;;3.00;;
23228;SDS011;11783;50.350;6.576;2023-10-08T01:36:55;6.85;;;2.80;;
23228;SDS011;11783;50.350;6.576;2023-10-08T01:39:26;7.90;;;2.80;;
23228;SDS011;11783;50.350;6.576;2023-10-08T01:41:52;8.30;;;2.80;;
23228;SDS011;11783;50.350;6.576;2023-10-08T01:44:17;7.35;;;3.00;;
23228;SDS011;11783;50.350;6.576;2023-10-08T01:46:43;7.10;;;2.78;;
23228;SDS011;11783;50.350;6.576;2023-10-08T01:49:08;6.68;;;2.78;;
23228;SDS011;11783;50.350;6.576;2023-10-08T01:54:11;6.82;;;2.53;;
23228;SDS011;11783;50.350;6.576;2023-10-08T01:56:40;7.13;;;2.75;;
23228;SDS011;11783;50.350;6.576;2023-10-08T01:59:10;8.98;;;3.20;;
23228;SDS011;11783;50.350;6.576;2023-10-08T02:01:36;7.75;;;2.63;;
23228;SDS011;11783;50.350;6.576;2023-10-08T02:04:03;6.65;;;2.72;;
23228;SDS011;11783;50.350;6.576;2023-10-08T02:06:32;8.98;;;3.22;;
23228;SDS011;11783;50.350;6.576;2023-10-08T02:08:58;7.07;;;2.80;;
23228;SDS011;11783;50.350;6.576;2023-10-08T02:11:23;11.25;;;2.85;;
23228;SDS011;11783;50.350;6.576;2023-10-08T02:13:49;9.07;;;2.95;;
23228;SDS011;11783;50.350;6.576;2023-10-08T02:16:19;8.00;;;3.08;;
23228;SDS011;11783;50.350;6.576;2023-10-08T02:18:47;5.95;;;2.78;;
23228;SDS011;11783;50.350;6.576;2023-10-08T02:21:13;7.13;;;3.00;;
23228;SDS011;11783;50.350;6.576;2023-10-08T02:23:38;9.05;;;3.28;;
23228;SDS011;11783;50.350;6.576;2023-10-08T02:26:04;7.05;;;2.90;;
23228;SDS011;11783;50.350;6.576;2023-10-08T02:28:30;8.23;;;3.10;;
23228;SDS011;11783;50.350;6.576;2023-10-08T02:30:58;7.30;;;3.00;;
23228;SDS011;11783;50.350;6.576;2023-10-08T02:33:25;9.45;;;3.03;;
23228;SDS011;11783;50.350;6.576;2023-10-08T02:35:51;9.32;;;3.42;;
23228;SDS011;11783;50.350;6.576;2023-10-08T02:38:18;10.63;;;3.17;;
23228;SDS011;11783;50.350;6.576;2023-10-08T02:40:46;7.85;;;2.95;;
23228;SDS011;11783;50.350;6.576;2023-10-08T02:43:13;10.23;;;3.75;;
23228;SDS011;11783;50.350;6.576;2023-10-08T02:45:40;8.90;;;3.00;;
23228;SDS011;11783;50.350;6.576;2023-10-08T02:48:07;8.60;;;3.42;;
23228;SDS011;11783;50.350;6.576;2023-10-08T02:50:42;7.72;;;3.20;;
23228;SDS011;11783;50.350;6.576;2023-10-08T02:53:10;7.57;;;3.65;;
23228;SDS011;11783;50.350;6.576;2023-10-08T02:55:40;7.88;;;3.03;;
23228;SDS011;11783;50.350;6.576;2023-10-08T02:58:09;10.77;;;3.90;;
23228;SDS011;11783;50.350;6.576;2023-10-08T03:00:44;8.70;;;2.80;;
23228;SDS011;11783;50.350;6.576;2023-10-08T03:03:15;7.22;;;2.95;;
23228;SDS011;11783;50.350;6.576;2023-10-08T03:05:43;12.95;;;3.58;;
23228;SDS011;11783;50.350;6.576;2023-10-08T03:08:15;9.52;;;3.03;;
23228;SDS011;11783;50.350;6.576;2023-10-08T03:10:51;8.52;;;2.80;;
23228;SDS011;11783;50.350;6.576;2023-10-08T03:13:23;9.55;;;3.85;;
23228;SDS011;11783;50.350;6.576;2023-10-08T03:15:48;8.50;;;3.30;;
23228;SDS011;11783;50.350;6.576;2023-10-08T03:18:26;11.30;;;3.03;;
23228;SDS011;11783;50.350;6.576;2023-10-08T03:21:02;9.43;;;3.22;;
23228;SDS011;11783;50.350;6.576;2023-10-08T03:23:29;7.75;;;2.90;;
23228;SDS011;11783;50.350;6.576;2023-10-08T03:25:59;9.90;;;3.20;;
23228;SDS011;11783;50.350;6.576;2023-10-08T03:28:36;7.90;;;2.92;;
23228;SDS011;11783;50.350;6.576;2023-10-08T03:31:02;10.35;;;3.05;;
23228;SDS011;11783;50.350;6.576;2023-10-08T03:33:37;6.55;;;2.88;;
23228;SDS011;11783;50.350;6.576;2023-10-08T03:36:03;7.30;;;2.58;;
23228;SDS011;11783;50.350;6.576;2023-10-08T03:38:50;7.28;;;3.00;;
23228;SDS011;11783;50.350;6.576;2023-10-08T03:41:22;8.75;;;3.20;;
23228;SDS011;11783;50.350;6.576;2023-10-08T03:43:55;8.10;;;3.08;;
23228;SDS011;11783;50.350;6.576;2023-10-08T03:46:32;5.95;;;2.97;;
23228;SDS011;11783;50.350;6.576;2023-10-08T03:49:06;14.07;;;3.10;;
23228;SDS011;11783;50.350;6.576;2023-10-08T03:51:39;11.93;;;3.50;;
23228;SDS011;11783;50.350;6.576;2023-10-08T03:54:08;8.15;;;3.10;;
23228;SDS011;11783;50.350;6.576;2023-10-08T03:56:39;10.93;;;3.33;;
23228;SDS011;11783;50.350;6.576;2023-10-08T03:59:10;10.18;;;3.60;;
23228;SDS011;11783;50.350;6.576;2023-10-08T04:01:40;9.07;;;3.83;;
23228;SDS011;11783;50.350;6.576;2023-10-08T04:04:07;7.80;;;3.08;;
23228;SDS011;11783;50.350;6.576;2023-10-08T04:06:38;9.20;;;3.10;;
23228;SDS011;11783;50.350;6.576;2023-10-08T04:09:04;7.78;;;3.50;;
23228;SDS011;11783;50.350;6.576;2023-10-08T04:11:33;8.02;;;3.65;;
23228;SDS011;11783;50.350;6.576;2023-10-08T04:14:14;8.27;;;3.10;;
23228;SDS011;11783;50.350;6.576;2023-10-08T04:16:44;8.23;;;3.75;;
23228;SDS011;11783;50.350;6.576;2023-10-08T04:19:10;7.78;;;3.17;;
23228;SDS011;11783;50.350;6.576;2023-10-08T04:21:37;8.52;;;2.90;;
23228;SDS011;11783;50.350;6.576;2023-10-08T04:24:05;7.40;;;2.90;;
23228;SDS011;11783;50.350;6.576;2023-10-08T04:26:31;7.43;;;2.80;;
23228;SDS011;11783;50.350;6.576;2023-10-08T04:28:58;7.47;;;3.42;;
23228;SDS011;11783;50.350;6.576;2023-10-08T04:31:27;10.02;;;3.60;;
23228;SDS011;11783;50.350;6.576;2023-10-08T04:34:02;7.70;;;3.20;;
23228;SDS011;11783;50.350;6.576;2023-10-08T04:36:51;13.23;;;3.05;;
23228;SDS011;11783;50.350;6.576;2023-10-08T04:39:20;9.50;;;4.07;;
23228;SDS011;11783;50.350;6.576;2023-10-08T04:41:57;11.13;;;4.35;;
23228;SDS011;11783;50.350;6.576;2023-10-08T04:44:37;7.88;;;3.40;;
23228;SDS011;11783;50.350;6.576;2023-10-08T04:47:06;8.80;;;3.42;;
23228;SDS011;11783;50.350;6.576;2023-10-08T04:49:42;7.45;;;3.25;;
23228;SDS011;11783;50.350;6.576;2023-10-08T04:52:10;8.63;;;3.65;;
23228;SDS011;11783;50.350;6.576;2023-10-08T04:54:44;10.65;;;3.38;;
23228;SDS011;11783;50.350;6.576;2023-10-08T04:57:16;8.73;;;3.50;;
23228;SDS011;11783;50.350;6.576;2023-10-08T04:59:43;8.40;;;3.00;;
23228;SDS011;11783;50.350;6.576;2023-10-08T05:02:11;8.93;;;3.33;;
23228;SDS011;11783;50.350;6.576;2023-10-08T05:04:43;9.07;;;3.00;;
23228;SDS011;11783;50.350;6.576;2023-10-08T05:07:27;8.77;;;3.70;;
23228;SDS011;11783;50.350;6.576;2023-10-08T05:09:52;8.70;;;3.90;;
23228;SDS011;11783;50.350;6.576;2023-10-08T05:12:37;10.68;;;4.78;;
23228;SDS011;11783;50.350;6.576;2023-10-08T05:15:06;10.75;;;4.90;;
23228;SDS011;11783;50.350;6.576;2023-10-08T05:17:38;9.60;;;4.50;;
23228;SDS011;11783;50.350;6.576;2023-10-08T05:20:19;8.73;;;3.90;;
23228;SDS011;11783;50.350;6.576;2023-10-08T05:23:08;7.47;;;3.38;;
23228;SDS011;11783;50.350;6.576;2023-10-08T05:25:51;8.25;;;3.45;;
23228;SDS011;11783;50.350;6.576;2023-10-08T05:28:26;10.88;;;3.42;;
23228;SDS011;11783;50.350;6.576;2023-10-08T05:30:53;10.63;;;3.30;;
23228;SDS011;11783;50.350;6.576;2023-10-08T05:33:20;9.10;;;3.53;;
23228;SDS011;11783;50.350;6.576;2023-10-08T05:35:49;10.50;;;3.38;;
23228;SDS011;11783;50.350;6.576;2023-10-08T05:38:19;9.63;;;3.67;;
23228;SDS011;11783;50.350;6.576;2023-10-08T05:40:55;9.93;;;3.50;;
23228;SDS011;11783;50.350;6.576;2023-10-08T05:43:26;8.38;;;3.50;;
23228;SDS011;11783;50.350;6.576;2023-10-08T05:46:05;10.80;;;3.90;;
23228;SDS011;11783;50.350;6.576;2023-10-08T05:48:47;8.27;;;3.90;;
23228;SDS011;11783;50.350;6.576;2023-10-08T05:51:36;8.18;;;3.30;;
23228;SDS011;11783;50.350;6.576;2023-10-08T05:54:12;7.85;;;3.38;;
23228;SDS011;11783;50.350;6.576;2023-10-08T05:57:05;7.57;;;3.45;;
23228;SDS011;11783;50.350;6.576;2023-10-08T06:02:31;6.22;;;2.90;;
23228;SDS011;11783;50.350;6.576;2023-10-08T06:05:07;8.05;;;2.97;;
23228;SDS011;11783;50.350;6.576;2023-10-08T06:07:53;8.73;;;3.35;;
23228;SDS011;11783;50.350;6.576;2023-10-08T06:13:04;8.57;;;3.50;;
23228;SDS011;11783;50.350;6.576;2023-10-08T06:15:55;6.25;;;3.08;;
23228;SDS011;11783;50.350;6.576;2023-10-08T06:18:23;7.60;;;3.20;;
23228;SDS011;11783;50.350;6.576;2023-10-08T06:20:57;8.77;;;3.28;;
23228;SDS011;11783;50.350;6.576;2023-10-08T06:23:34;9.63;;;3.63;;
23228;SDS011;11783;50.350;6.576;2023-10-08T06:26:00;8.10;;;3.25;;
23228;SDS011;11783;50.350;6.576;2023-10-08T06:28:35;7.75;;;3.50;;
23228;SDS011;11783;50.350;6.576;2023-10-08T06:31:03;7.93;;;3.65;;
23228;SDS011;11783;50.350;6.576;2023-10-08T06:33:36;9.90;;;3.88;;
23228;SDS011;11783;50.350;6.576;2023-10-08T06:36:03;9.05;;;3.63;;
23228;SDS011;11783;50.350;6.576;2023-10-08T06:38:35;11.43;;;4.05;;
23228;SDS011;11783;50.350;6.576;2023-10-08T06:41:04;7.50;;;3.58;;
23228;SDS011;11783;50.350;6.576;2023-10-08T06:43:40;9.38;;;3.30;;
23228;SDS011;11783;50.350;6.576;2023-10-08T06:46:12;8.07;;;3.60;;
23228;SDS011;11783;50.350;6.576;2023-10-08T06:48:39;7.35;;;3.38;;
23228;SDS011;11783;50.350;6.576;2023-10-08T06:51:08;7.85;;;3.20;;
23228;SDS011;11783;50.350;6.576;2023-10-08T06:53:38;9.52;;;3.65;;
23228;SDS011;11783;50.350;6.576;2023-10-08T06:56:04;9.13;;;4.28;;
23228;SDS011;11783;50.350;6.576;2023-10-08T06:58:33;9.82;;;4.38;;
23228;SDS011;11783;50.350;6.576;2023-10-08T07:00:59;10.05;;;3.78;;
23228;SDS011;11783;50.350;6.576;2023-10-08T07:03:29;7.88;;;3.38;;
23228;SDS011;11783;50.350;6.576;2023-10-08T07:05:56;7.60;;;4.15;;
23228;SDS011;11783;50.350;6.576;2023-10-08T07:10:57;8.60;;;4.28;;
23228;SDS011;11783;50.350;6.576;2023-10-08T07:13:24;9.18;;;3.85;;
23228;SDS011;11783;50.350;6.576;2023-10-08T07:15:51;10.23;;;4.50;;
23228;SDS011;11783;50.350;6.576;2023-10-08T07:18:17;12.23;;;5.50;;
23228;SDS011;11783;50.350;6.576;2023-10-08T07:20:54;8.63;;;4.20;;
23228;SDS011;11783;50.350;6.576;2023-10-08T07:23:26;11.20;;;4.75;;
23228;SDS011;11783;50.350;6.576;2023-10-08T07:25:59;11.50;;;4.53;;
23228;SDS011;11783;50.350;6.576;2023-10-08T07:28:40;9.63;;;4.20;;
23228;SDS011;11783;50.350;6.576;2023-10-08T07:31:13;10.15;;;4.32;;
23228;SDS011;11783;50.350;6.576;2023-10-08T07:33:42;9.95;;;4.15;;
23228;SDS011;11783;50.350;6.576;2023-10-08T07:36:09;12.48;;;4.15;;
23228;SDS011;11783;50.350;6.576;2023-10-08T07:38:39;7.60;;;3.42;;
23228;SDS011;11783;50.350;6.576;2023-10-08T07:41:11;11.55;;;5.22;;
23228;SDS011;11783;50.350;6.576;2023-10-08T07:43:40;17.45;;;6.88;;
23228;SDS011;11783;50.350;6.576;2023-10-08T07:46:36;17.10;;;6.57;;
23228;SDS011;11783;50.350;6.576;2023-10-08T07:49:01;14.98;;;5.35;;
23228;SDS011;11783;50.350;6.576;2023-10-08T07:51:29;15.82;;;5.43;;
23228;SDS011;11783;50.350;6.576;2023-10-08T07:53:54;13.32;;;5.00;;
23228;SDS011;11783;50.350;6.576;2023-10-08T07:56:21;16.02;;;5.82;;
23228;SDS011;11783;50.350;6.576;2023-10-08T07:58:47;12.73;;;4.78;;
23228;SDS011;11783;50.350;6.576;2023-10-08T08:01:13;13.38;;;4.70;;
23228;SDS011;11783;50.350;6.576;2023-10-08T08:03:39;13.13;;;4.68;;
23228;SDS011;11783;50.350;6.576;2023-10-08T08:06:07;11.75;;;4.50;;
23228;SDS011;11783;50.350;6.576;2023-10-08T08:08:37;11.40;;;4.35;;
23228;SDS011;11783;50.350;6.576;2023-10-08T08:11:04;14.23;;;4.82;;
23228;SDS011;11783;50.350;6.576;2023-10-08T08:13:37;10.30;;;4.22;;
23228;SDS011;11783;50.350;6.576;2023-10-08T08:16:07;8.63;;;3.60;;
23228;SDS011;11783;50.350;6.576;2023-10-08T08:18:51;12.10;;;4.35;;
23228;SDS011;11783;50.350;6.576;2023-10-08T08:21:20;12.30;;;4.97;;
23228;SDS011;11783;50.350;6.576;2023-10-08T08:23:48;10.57;;;4.10;;
23228;SDS011;11783;50.350;6.576;2023-10-08T08:26:21;14.23;;;4.28;;
23228;SDS011;11783;50.350;6.576;2023-10-08T08:28:58;8.90;;;3.83;;
23228;SDS011;11783;50.350;6.576;2023-10-08T08:31:26;12.80;;;4.72;;
23228;SDS011;11783;50.350;6.576;2023-10-08T08:33:56;12.55;;;4.38;;
23228;SDS011;11783;50.350;6.576;2023-10-08T08:36:24;8.40;;;4.18;;
23228;SDS011;11783;50.350;6.576;2023-10-08T08:38:52;10.77;;;4.88;;
23228;SDS011;11783;50.350;6.576;2023-10-08T08:41:18;10.70;;;4.15;;
23228;SDS011;11783;50.350;6.576;2023-10-08T08:43:48;15.80;;;4.32;;
23228;SDS011;11783;50.350;6.576;2023-10-08T08:46:31;10.05;;;4.07;;
23228;SDS011;11783;50.350;6.576;2023-10-08T08:49:01;10.55;;;3.60;;
23228;SDS011;11783;50.350;6.576;2023-10-08T08:53:55;10.20;;;3.63;;
23228;SDS011;11783;50.350;6.576;2023-10-08T08:56:20;10.95;;;3.97;;
23228;SDS011;11783;50.350;6.576;2023-10-08T08:58:48;12.00;;;4.30;;
23228;SDS011;11783;50.350;6.576;2023-10-08T09:01:14;10.45;;;4.25;;
23228;SDS011;11783;50.350;6.576;2023-10-08T09:03:42;10.65;;;4.15;;
23228;SDS011;11783;50.350;6.576;2023-10-08T09:06:08;11.48;;;4.40;;
23228;SDS011;11783;50.350;6.576;2023-10-08T09:08:34;9.50;;;3.53;;
23228;SDS011;11783;50.350;6.576;2023-10-08T09:11:01;9.38;;;3.95;;
23228;SDS011;11783;50.350;6.576;2023-10-08T09:13:29;15.30;;;3.95;;
23228;SDS011;11783;50.350;6.576;2023-10-08T09:18:44;11.35;;;4.05;;
23228;SDS011;11783;50.350;6.576;2023-10-08T09:21:13;12.35;;;3.88;;
23228;SDS011;11783;50.350;6.576;2023-10-08T09:23:51;11.25;;;3.70;;
23228;SDS011;11783;50.350;6.576;2023-10-08T09:26:22;11.65;;;4.07;;
23228;SDS011;11783;50.350;6.576;2023-10-08T09:28:49;10.55;;;3.60;;
23228;SDS011;11783;50.350;6.576;2023-10-08T09:31:16;9.05;;;3.53;;
23228;SDS011;11783;50.350;6.576;2023-10-08T09:33:43;10.88;;;4.00;;
23228;SDS011;11783;50.350;6.576;2023-10-08T09:36:18;11.70;;;3.72;;
23228;SDS011;11783;50.350;6.576;2023-10-08T09:38:45;13.07;;;3.53;;
23228;SDS011;11783;50.350;6.576;2023-10-08T09:41:13;10.57;;;3.83;;
23228;SDS011;11783;50.350;6.576;2023-10-08T09:43:40;12.05;;;4.55;;
23228;SDS011;11783;50.350;6.576;2023-10-08T09:48:44;9.75;;;3.50;;
23228;SDS011;11783;50.350;6.576;2023-10-08T09:51:18;10.15;;;3.70;;
23228;SDS011;11783;50.350;6.576;2023-10-08T09:56:43;12.50;;;3.63;;
23228;SDS011;11783;50.350;6.576;2023-10-08T09:59:09;10.35;;;3.55;;
23228;SDS011;11783;50.350;6.576;2023-10-08T10:01:38;11.35;;;3.60;;
23228;SDS011;11783;50.350;6.576;2023-10-08T10:04:09;13.73;;;3.53;;
23228;SDS011;11783;50.350;6.576;2023-10-08T10:06:35;14.52;;;3.67;;
23228;SDS011;11783;50.350;6.576;2023-10-08T10:09:02;9.15;;;3.42;;
23228;SDS011;11783;50.350;6.576;2023-10-08T10:13:59;16.45;;;3.35;;
23228;SDS011;11783;50.350;6.576;2023-10-08T10:16:25;12.93;;;3.38;;
23228;SDS011;11783;50.350;6.576;2023-10-08T10:18:57;12.30;;;3.15;;
23228;SDS011;11783;50.350;6.576;2023-10-08T10:24:00;8.98;;;3.47;;
23228;SDS011;11783;50.350;6.576;2023-10-08T10:26:33;11.95;;;3.50;;
23228;SDS011;11783;50.350;6.576;2023-10-08T10:31:41;10.60;;;3.63;;
23228;SDS011;11783;50.350;6.576;2023-10-08T10:34:15;12.38;;;3.47;;
23228;SDS011;11783;50.350;6.576;2023-10-08T10:36:46;9.00;;;2.97;;
23228;SDS011;11783;50.350;6.576;2023-10-08T10:39:14;10.73;;;3.15;;
23228;SDS011;11783;50.350;6.576;2023-10-08T10:41:48;10.98;;;3.67;;
23228;SDS011;11783;50.350;6.576;2023-10-08T10:44:16;10.82;;;3.30;;
23228;SDS011;11783;50.350;6.576;2023-10-08T10:46:42;13.45;;;3.13;;
23228;SDS011;11783;50.350;6.576;2023-10-08T10:49:09;10.75;;;3.35;;
23228;SDS011;11783;50.350;6.576;2023-10-08T10:51:44;8.60;;;3.08;;
23228;SDS011;11783;50.350;6.576;2023-10-08T10:54:12;11.80;;;3.40;;
23228;SDS011;11783;50.350;6.576;2023-10-08T10:56:46;12.43;;;3.25;;
23228;SDS011;11783;50.350;6.576;2023-10-08T10:59:13;16.40;;;3.47;;
23228;SDS011;11783;50.350;6.576;2023-10-08T11:01:48;10.63;;;2.92;;
23228;SDS011;11783;50.350;6.576;2023-10-08T11:04:34;11.75;;;3.00;;
23228;SDS011;11783;50.350;6.576;2023-10-08T11:07:27;15.05;;;3.17;;
23228;SDS011;11783;50.350;6.576;2023-10-08T11:09:54;14.88;;;3.60;;
23228;SDS011;11783;50.350;6.576;2023-10-08T11:12:20;11.50;;;3.50;;
23228;SDS011;11783;50.350;6.576;2023-10-08T11:14:54;13.52;;;3.00;;
23228;SDS011;11783;50.350;6.576;2023-10-08T11:17:22;10.60;;;3.38;;
23228;SDS011;11783;50.350;6.576;2023-10-08T11:19:53;15.13;;;3.55;;
23228;SDS011;11783;50.350;6.576;2023-10-08T11:22:19;12.85;;;2.97;;
23228;SDS011;11783;50.350;6.576;2023-10-08T11:24:47;12.30;;;3.58;;
23228;SDS011;11783;50.350;6.576;2023-10-08T11:27:14;15.85;;;3.35;;
23228;SDS011;11783;50.350;6.576;2023-10-08T11:29:48;11.57;;;3.10;;
23228;SDS011;11783;50.350;6.576;2023-10-08T11:32:21;10.65;;;3.17;;
23228;SDS011;11783;50.350;6.576;2023-10-08T11:34:54;12.38;;;3.10;;
23228;SDS011;11783;50.350;6.576;2023-10-08T11:40:00;9.98;;;3.08;;
23228;SDS011;11783;50.350;6.576;2023-10-08T11:42:34;12.82;;;2.92;;
23228;SDS011;11783;50.350;6.576;2023-10-08T11:45:00;12.10;;;3.20;;
23228;SDS011;11783;50.350;6.576;2023-10-08T11:47:43;16.08;;;3.75;;
23228;SDS011;11783;50.350;6.576;2023-10-08T11:50:10;11.85;;;2.90;;
23228;SDS011;11783;50.350;6.576;2023-10-08T11:52:42;13.75;;;3.35;;
23228;SDS011;11783;50.350;6.576;2023-10-08T11:55:08;9.07;;;2.72;;
23228;SDS011;11783;50.350;6.576;2023-10-08T11:57:35;11.93;;;3.25;;
23228;SDS011;11783;50.350;6.576;2023-10-08T12:00:04;14.43;;;2.75;;
23228;SDS011;11783;50.350;6.576;2023-10-08T12:02:44;12.30;;;2.85;;
23228;SDS011;11783;50.350;6.576;2023-10-08T12:05:13;9.70;;;2.90;;
23228;SDS011;11783;50.350;6.576;2023-10-08T12:07:45;10.35;;;3.28;;
23228;SDS011;11783;50.350;6.576;2023-10-08T12:10:12;9.15;;;2.50;;
23228;SDS011;11783;50.350;6.576;2023-10-08T12:12:38;12.32;;;3.20;;
23228;SDS011;11783;50.350;6.576;2023-10-08T12:15:04;13.48;;;3.35;;
23228;SDS011;11783;50.350;6.576;2023-10-08T12:17:33;11.95;;;3.17;;
23228;SDS011;11783;50.350;6.576;2023-10-08T12:20:07;13.13;;;2.60;;
23228;SDS011;11783;50.350;6.576;2023-10-08T12:22:49;10.10;;;2.72;;
23228;SDS011;11783;50.350;6.576;2023-10-08T12:25:15;9.80;;;2.88;;
23228;SDS011;11783;50.350;6.576;2023-10-08T12:27:40;17.30;;;3.35;;
23228;SDS011;11783;50.350;6.576;2023-10-08T12:30:06;8.85;;;2.80;;
23228;SDS011;11783;50.350;6.576;2023-10-08T12:32:36;13.18;;;2.90;;
23228;SDS011;11783;50.350;6.576;2023-10-08T12:35:07;9.63;;;2.80;;
23228;SDS011;11783;50.350;6.576;2023-10-08T12:37:42;11.63;;;2.55;;
23228;SDS011;11783;50.350;6.576;2023-10-08T12:40:09;10.23;;;2.55;;
23228;SDS011;11783;50.350;6.576;2023-10-08T12:42:48;9.50;;;2.45;;
23228;SDS011;11783;50.350;6.576;2023-10-08T12:45:15;11.40;;;2.53;;
23228;SDS011;11783;50.350;6.576;2023-10-08T12:47:46;14.57;;;2.83;;
23228;SDS011;11783;50.350;6.576;2023-10-08T12:50:12;11.07;;;2.35;;
23228;SDS011;11783;50.350;6.576;2023-10-08T12:52:41;8.30;;;2.45;;
23228;SDS011;11783;50.350;6.576;2023-10-08T12:55:12;14.13;;;2.90;;
23228;SDS011;11783;50.350;6.576;2023-10-08T12:57:38;16.38;;;3.08;;
23228;SDS011;11783;50.350;6.576;2023-10-08T13:00:06;11.85;;;2.78;;
23228;SDS011;11783;50.350;6.576;2023-10-08T13:02:33;10.13;;;2.67;;
23228;SDS011;11783;50.350;6.576;2023-10-08T13:05:03;12.32;;;2.80;;
23228;SDS011;11783;50.350;6.576;2023-10-08T13:07:40;9.98;;;2.40;;
23228;SDS011;11783;50.350;6.576;2023-10-08T13:10:08;10.95;;;2.47;;
23228;SDS011;11783;50.350;6.576;2023-10-08T13:12:36;6.57;;;2.30;;
23228;SDS011;11783;50.350;6.576;2023-10-08T13:15:02;13.38;;;2.90;;
23228;SDS011;11783;50.350;6.576;2023-10-08T13:17:31;9.20;;;2.55;;
23228;SDS011;11783;50.350;6.576;2023-10-08T13:19:57;10.10;;;3.03;;
23228;SDS011;11783;50.350;6.576;2023-10-08T13:22:22;13.50;;;2.80;;
23228;SDS011;11783;50.350;6.576;2023-10-08T13:24:49;14.02;;;2.63;;
23228;SDS011;11783;50.350;6.576;2023-10-08T13:27:14;13.23;;;3.03;;
23228;SDS011;11783;50.350;6.576;2023-10-08T13:29:41;8.27;;;2.70;;
23228;SDS011;11783;50.350;6.576;2023-10-08T13:32:08;9.48;;;2.88;;
23228;SDS011;11783;50.350;6.576;2023-10-08T13:34:42;14.23;;;2.50;;
23228;SDS011;11783;50.350;6.576;2023-10-08T13:37:08;9.85;;;3.17;;
23228;SDS011;11783;50.350;6.576;2023-10-08T13:39:34;9.52;;;2.50;;
23228;SDS011;11783;50.350;6.576;2023-10-08T13:42:00;14.95;;;2.85;;
23228;SDS011;11783;50.350;6.576;2023-10-08T13:44:26;11.23;;;2.50;;
23228;SDS011;11783;50.350;6.576;2023-10-08T13:46:55;15.40;;;2.80;;
23228;SDS011;11783;50.350;6.576;2023-10-08T13:49:23;15.57;;;3.15;;
23228;SDS011;11783;50.350;6.576;2023-10-08T13:51:51;13.02;;;2.47;;
23228;SDS011;11783;50.350;6.576;2023-10-08T13:54:24;10.45;;;2.90;;
23228;SDS011;11783;50.350;6.576;2023-10-08T13:56:55;12.13;;;3.28;;
23228;SDS011;11783;50.350;6.576;2023-10-08T13:59:21;11.07;;;2.35;;
23228;SDS011;11783;50.350;6.576;2023-10-08T14:01:49;13.88;;;2.60;;
23228;SDS011;11783;50.350;6.576;2023-10-08T14:04:19;12.10;;;2.90;;
23228;SDS011;11783;50.350;6.576;2023-10-08T14:06:45;12.32;;;2.63;;
23228;SDS011;11783;50.350;6.576;2023-10-08T14:09:20;13.32;;;2.72;;
23228;SDS011;11783;50.350;6.576;2023-10-08T14:11:47;12.00;;;2.83;;
23228;SDS011;11783;50.350;6.576;2023-10-08T14:14:15;12.02;;;2.95;;
23228;SDS011;11783;50.350;6.576;2023-10-08T14:16:42;12.88;;;3.08;;
23228;SDS011;11783;50.350;6.576;2023-10-08T14:19:11;15.57;;;3.95;;
23228;SDS011;11783;50.350;6.576;2023-10-08T14:21:38;14.93;;;2.97;;
23228;SDS011;11783;50.350;6.576;2023-10-08T14:24:14;10.95;;;2.83;;
23228;SDS011;11783;50.350;6.576;2023-10-08T14:26:43;11.13;;;2.95;;
23228;SDS011;11783;50.350;6.576;2023-10-08T14:29:16;11.27;;;3.20;;
23228;SDS011;11783;50.350;6.576;2023-10-08T14:31:42;12.65;;;3.20;;
23228;SDS011;11783;50.350;6.576;2023-10-08T14:34:13;15.05;;;3.15;;
23228;SDS011;11783;50.350;6.576;2023-10-08T14:36:42;12.90;;;3.25;;
23228;SDS011;11783;50.350;6.576;2023-10-08T14:39:27;15.50;;;3.30;;
23228;SDS011;11783;50.350;6.576;2023-10-08T14:42:11;13.02;;;3.10;;
23228;SDS011;11783;50.350;6.576;2023-10-08T14:44:55;8.73;;;2.80;;
23228;SDS011;11783;50.350;6.576;2023-10-08T14:47:20;14.98;;;2.90;;
23228;SDS011;11783;50.350;6.576;2023-10-08T14:49:46;14.15;;;3.65;;
23228;SDS011;11783;50.350;6.576;2023-10-08T14:52:12;14.70;;;3.13;;
23228;SDS011;11783;50.350;6.576;2023-10-08T14:54:37;12.68;;;3.33;;
23228;SDS011;11783;50.350;6.576;2023-10-08T14:57:03;10.20;;;3.03;;
23228;SDS011;11783;50.350;6.576;2023-10-08T14:59:30;14.32;;;3.17;;
23228;SDS011;11783;50.350;6.576;2023-10-08T15:01:57;11.75;;;3.22;;
23228;SDS011;11783;50.350;6.576;2023-10-08T15:04:23;10.90;;;2.80;;
23228;SDS011;11783;50.350;6.576;2023-10-08T15:06:51;11.55;;;3.63;;
23228;SDS011;11783;50.350;6.576;2023-10-08T15:09:17;11.32;;;3.03;;
23228;SDS011;11783;50.350;6.576;2023-10-08T15:11:49;15.85;;;3.03;;
23228;SDS011;11783;50.350;6.576;2023-10-08T15:14:18;12.50;;;2.92;;
23228;SDS011;11783;50.350;6.576;2023-10-08T15:16:45;12.90;;;3.30;;
23228;SDS011;11783;50.350;6.576;2023-10-08T15:19:17;9.82;;;2.70;;
23228;SDS011;11783;50.350;6.576;2023-10-08T15:21:46;9.88;;;3.17;;
23228;SDS011;11783;50.350;6.576;2023-10-08T15:24:24;10.63;;;2.83;;
23228;SDS011;11783;50.350;6.576;2023-10-08T15:26:50;14.18;;;2.88;;
23228;SDS011;11783;50.350;6.576;2023-10-08T15:29:21;11.27;;;2.97;;
23228;SDS011;11783;50.350;6.576;2023-10-08T15:31:50;9.32;;;2.90;;